Time;durP1;ratioP1;P1;durP2;ratioP2;P2;SDS_P1;SDS_P2;PMS_P1;PMS_P2;Temp;Humidity;BMP_temperature;BMP_pressure;BME280_temperature;BME280_humidity;BME280_pressure;Samples;Min_cycle;Max_cycle;Signal;HPM_P1;HPM_P2
2022/03/27 00:02:53;;;;;;;4.20;3.25;;;;;;;;;;20201842;29;20056;-78
2022/03/27 00:12:55;;;;;;;5.30;3.35;;;;;;;;;;20208118;29;20112;-78
2022/03/27 00:22:57;;;;;;;5.45;3.40;;;;;;;;;;20193174;29;20505;-78
2022/03/27 00:32:59;;;;;;;4.35;3.35;;;;;;;;;;20205440;29;20044;-78
2022/03/27 00:43:00;;;;;;;4.97;3.38;;;;;;;;;;20210410;29;20041;-78
2022/03/27 00:53:02;;;;;;;5.28;3.65;;;;;;;;;;20229651;29;20044;-78
2022/03/27 01:03:14;;;;;;;4.07;3.25;;;;;;;;;;20239709;29;20064;-78
2022/03/27 01:13:18;;;;;;;4.70;3.55;;;;;;;;;;20192788;29;20131;-78
2022/03/27 01:23:20;;;;;;;4.80;3.70;;;;;;;;;;20226362;29;20048;-78
2022/03/27 01:33:22;;;;;;;4.63;3.45;;;;;;;;;;20241420;29;20040;-78
2022/03/27 01:43:23;;;;;;;4.60;3.33;;;;;;;;;;20197301;29;20045;-78
2022/03/27 01:53:25;;;;;;;4.43;3.33;;;;;;;;;;20234034;29;20073;-77
2022/03/27 02:03:28;;;;;;;4.07;2.90;;;;;;;;;;20220134;29;20056;-77
2022/03/27 02:13:30;;;;;;;3.55;2.88;;;;;;;;;;20217326;29;20049;-77
2022/03/27 02:23:31;;;;;;;3.92;2.83;;;;;;;;;;20224432;29;20064;-77
2022/03/27 02:33:34;;;;;;;3.50;2.90;;;;;;;;;;20231569;29;20384;-77
2022/03/27 02:43:38;;;;;;;3.40;2.67;;;;;;;;;;20223100;29;20041;-77
2022/03/27 02:53:40;;;;;;;3.60;2.60;;;;;;;;;;20202507;29;20392;-77
2022/03/27 03:03:42;;;;;;;3.13;2.33;;;;;;;;;;20184029;29;20068;-77
2022/03/27 03:13:46;;;;;;;3.50;2.97;;;;;;;;;;20179879;29;20052;-77
2022/03/27 03:23:47;;;;;;;3.22;2.40;;;;;;;;;;20209326;29;20065;-77
2022/03/27 03:33:49;;;;;;;2.70;2.25;;;;;;;;;;20211441;29;20048;-77
2022/03/27 03:43:51;;;;;;;2.75;2.22;;;;;;;;;;20240530;29;20055;-77
2022/03/27 03:53:54;;;;;;;2.30;1.92;;;;;;;;;;20239868;29;20049;-77
2022/03/27 04:03:56;;;;;;;2.67;1.92;;;;;;;;;;20216984;29;20406;-77
2022/03/27 04:13:57;;;;;;;2.00;1.80;;;;;;;;;;20231842;29;20490;-77
2022/03/27 04:23:59;;;;;;;3.03;2.10;;;;;;;;;;20215238;29;20053;-77
2022/03/27 04:34:06;;;;;;;2.67;1.90;;;;;;;;;;20218558;29;20041;-77
2022/03/27 04:44:08;;;;;;;2.50;1.67;;;;;;;;;;20239630;29;20105;-77
2022/03/27 04:54:09;;;;;;;2.95;1.88;;;;;;;;;;20236693;29;20045;-77
2022/03/27 05:04:11;;;;;;;3.88;2.05;;;;;;;;;;20233314;29;20049;-77
2022/03/27 05:14:13;;;;;;;3.03;1.67;;;;;;;;;;20231835;29;20060;-77
2022/03/27 05:24:14;;;;;;;3.20;1.90;;;;;;;;;;20257817;29;20074;-77
2022/03/27 05:34:16;;;;;;;2.50;1.45;;;;;;;;;;20275350;29;20059;-77
2022/03/27 05:44:18;;;;;;;2.35;1.50;;;;;;;;;;20274283;29;20053;-76
2022/03/27 05:54:19;;;;;;;2.60;1.65;;;;;;;;;;20273140;29;20052;-76
2022/03/27 06:04:21;;;;;;;3.60;1.60;;;;;;;;;;20271907;29;20060;-76
2022/03/27 06:14:23;;;;;;;4.25;1.63;;;;;;;;;;20271557;29;20083;-76
2022/03/27 06:24:25;;;;;;;2.70;1.35;;;;;;;;;;20271008;29;20052;-76
2022/03/27 06:34:29;;;;;;;7.13;1.85;;;;;;;;;;20270239;29;20074;-75
2022/03/27 06:44:31;;;;;;;5.47;2.22;;;;;;;;;;20269214;29;20049;-76
2022/03/27 06:54:34;;;;;;;4.63;1.70;;;;;;;;;;20268555;29;20067;-76
2022/03/27 07:04:35;;;;;;;4.10;1.80;;;;;;;;;;20267461;29;20061;-76
2022/03/27 07:14:37;;;;;;;6.53;1.83;;;;;;;;;;20266326;29;20112;-80
2022/03/27 07:24:39;;;;;;;6.57;2.15;;;;;;;;;;20250253;29;20057;-77
2022/03/27 07:34:41;;;;;;;3.95;1.58;;;;;;;;;;20249230;29;20045;-76
2022/03/27 07:44:42;;;;;;;6.53;2.00;;;;;;;;;;20265437;29;20426;-76
2022/03/27 07:54:44;;;;;;;5.75;1.40;;;;;;;;;;20264682;29;20085;-77
2022/03/27 08:04:46;;;;;;;6.90;2.22;;;;;;;;;;20264191;29;20067;-76
2022/03/27 08:14:48;;;;;;;8.25;2.05;;;;;;;;;;20247532;29;20048;-77
2022/03/27 08:24:50;;;;;;;7.18;2.53;;;;;;;;;;20274261;29;20108;-77
2022/03/27 08:34:51;;;;;;;9.07;2.40;;;;;;;;;;20262370;29;20053;-77
2022/03/27 08:44:53;;;;;;;7.07;2.63;;;;;;;;;;20279738;29;20495;-77
2022/03/27 08:55:04;;;;;;;6.65;1.90;;;;;;;;;;20277757;29;20414;-78
2022/03/27 09:05:07;;;;;;;8.48;2.40;;;;;;;;;;20276551;29;20571;-77
2022/03/27 09:15:09;;;;;;;7.47;2.30;;;;;;;;;;20120478;29;20042;-76
2022/03/27 09:25:11;;;;;;;8.02;2.85;;;;;;;;;;20121024;29;20144;-81
2022/03/27 09:35:14;;;;;;;8.35;2.50;;;;;;;;;;20143093;29;20045;-81
2022/03/27 09:45:17;;;;;;;8.88;2.50;;;;;;;;;;20215989;29;20060;-84
2022/03/27 09:55:19;;;;;;;8.45;3.90;;;;;;;;;;20181214;29;20075;-85
2022/03/27 10:05:21;;;;;;;8.75;2.70;;;;;;;;;;20196845;29;20061;-83
2022/03/27 10:15:24;;;;;;;8.13;2.60;;;;;;;;;;20194706;29;20057;-83
2022/03/27 10:25:28;;;;;;;9.55;2.65;;;;;;;;;;20177274;29;20056;-82
2022/03/27 10:35:30;;;;;;;6.32;2.40;;;;;;;;;;20192611;29;20041;-82
2022/03/27 10:45:32;;;;;;;7.85;2.33;;;;;;;;;;20175456;29;20048;-82
2022/03/27 10:55:36;;;;;;;7.80;2.13;;;;;;;;;;20175112;29;20073;-82
2022/03/27 11:05:39;;;;;;;7.05;2.22;;;;;;;;;;20190188;29;20060;-82
2022/03/27 11:16:19;;;;;;;4.57;2.10;;;;;;;;;;20189914;29;20475;-82
2022/03/27 11:26:21;;;;;;;6.72;1.80;;;;;;;;;;20043711;29;20056;-82
2022/03/27 11:36:24;;;;;;;5.00;2.00;;;;;;;;;;20188821;29;20071;-82
2022/03/27 11:46:27;;;;;;;6.13;2.13;;;;;;;;;;20171832;29;20376;-82
2022/03/27 11:56:29;;;;;;;5.78;2.40;;;;;;;;;;20170921;29;20523;-83
2022/03/27 12:06:31;;;;;;;7.50;2.00;;;;;;;;;;20168238;29;20136;-86
2022/03/27 12:16:33;;;;;;;6.13;2.30;;;;;;;;;;20187541;29;20053;-85
2022/03/27 12:37:09;;;;;;;10.05;2.63;;;;;;;;;;20187331;29;20057;-88
2022/03/27 12:47:11;;;;;;;6.72;2.13;;;;;;;;;;20169310;29;20081;-88
2022/03/27 12:57:13;;;;;;;8.60;2.47;;;;;;;;;;20168636;29;20049;-87
2022/03/27 13:07:17;;;;;;;6.53;2.13;;;;;;;;;;20189981;29;20143;-88
2022/03/27 13:17:20;;;;;;;6.43;1.77;;;;;;;;;;20198881;29;20480;-86
2022/03/27 13:27:21;;;;;;;6.00;1.83;;;;;;;;;;20181837;29;20049;-88
2022/03/27 13:37:23;;;;;;;7.78;2.22;;;;;;;;;;20180719;29;20088;-87
2022/03/27 13:47:25;;;;;;;6.55;1.98;;;;;;;;;;20164868;29;20423;-88
2022/03/27 13:57:27;;;;;;;5.47;1.95;;;;;;;;;;20195832;29;20071;-87
2022/03/27 14:07:29;;;;;;;7.82;2.10;;;;;;;;;;20178036;29;20088;-85
2022/03/27 14:17:31;;;;;;;5.68;1.73;;;;;;;;;;20177375;29;20491;-84
2022/03/27 14:27:32;;;;;;;10.73;2.13;;;;;;;;;;20194053;29;20147;-91
2022/03/27 14:37:36;;;;;;;9.73;3.05;;;;;;;;;;20210560;29;20049;-91
2022/03/27 14:47:37;;;;;;;10.18;2.35;;;;;;;;;;20252458;29;20083;-92
2022/03/27 14:57:40;;;;;;;11.88;2.83;;;;;;;;;;20200799;29;20415;-91
2022/03/27 15:07:42;;;;;;;9.82;2.58;;;;;;;;;;20190902;29;20140;-92
2022/03/27 15:17:44;;;;;;;8.05;2.15;;;;;;;;;;20173408;29;20113;-92
2022/03/27 15:27:46;;;;;;;8.48;2.22;;;;;;;;;;20190057;29;20554;-92
2022/03/27 15:37:48;;;;;;;11.18;2.42;;;;;;;;;;20171678;29;20053;-92
2022/03/27 15:47:50;;;;;;;12.40;2.75;;;;;;;;;;20171318;29;20057;-91
2022/03/27 15:57:52;;;;;;;6.05;1.73;;;;;;;;;;20171051;29;20049;-92
2022/03/27 16:07:54;;;;;;;5.78;2.08;;;;;;;;;;20170656;29;20060;-91
2022/03/27 16:17:56;;;;;;;7.63;1.85;;;;;;;;;;20186627;29;20057;-93
2022/03/27 16:27:57;;;;;;;6.03;2.28;;;;;;;;;;20154470;29;20059;-91
2022/03/27 16:38:00;;;;;;;5.10;1.65;;;;;;;;;;20186971;29;20049;-91
2022/03/27 16:48:01;;;;;;;5.72;2.10;;;;;;;;;;20200162;29;20415;-92
2022/03/27 16:58:03;;;;;;;5.30;2.10;;;;;;;;;;20183873;29;20049;-89
2022/03/27 17:08:05;;;;;;;8.25;2.03;;;;;;;;;;20183067;29;20065;-87
2022/03/27 17:18:07;;;;;;;8.38;2.20;;;;;;;;;;20181929;29;20173;-88
2022/03/27 17:28:09;;;;;;;8.65;2.28;;;;;;;;;;20202274;29;20055;-87
2022/03/27 17:38:11;;;;;;;6.65;2.08;;;;;;;;;;20192727;29;20104;-87
2022/03/27 17:48:13;;;;;;;6.60;1.77;;;;;;;;;;20180396;29;20060;-86
2022/03/27 17:58:15;;;;;;;9.57;3.50;;;;;;;;;;20194748;29;20056;-83
2022/03/27 18:08:17;;;;;;;11.35;2.55;;;;;;;;;;20163839;29;20156;-88
2022/03/27 18:18:19;;;;;;;8.60;2.58;;;;;;;;;;20194653;29;20045;-88
2022/03/27 18:28:22;;;;;;;8.43;2.25;;;;;;;;;;20195039;29;20481;-87
2022/03/27 18:38:24;;;;;;;8.50;2.17;;;;;;;;;;20177896;29;20056;-88
2022/03/27 18:48:26;;;;;;;7.07;2.13;;;;;;;;;;20176711;29;20396;-86
2022/03/27 18:58:28;;;;;;;7.95;2.13;;;;;;;;;;20174784;29;20052;-87
2022/03/27 19:08:32;;;;;;;7.72;2.10;;;;;;;;;;20191448;29;20139;-87
2022/03/27 19:18:44;;;;;;;7.07;2.10;;;;;;;;;;20196218;29;20505;-88
2022/03/27 19:28:46;;;;;;;6.03;1.50;;;;;;;;;;20238748;29;20044;-87
2022/03/27 19:38:48;;;;;;;6.90;2.10;;;;;;;;;;20223407;29;20057;-87
2022/03/27 19:48:50;;;;;;;7.32;2.10;;;;;;;;;;20202398;29;20052;-88
2022/03/27 19:58:52;;;;;;;4.18;1.63;;;;;;;;;;20215979;29;20040;-88
2022/03/27 20:08:54;;;;;;;4.38;1.45;;;;;;;;;;20206822;29;20059;-87
2022/03/27 20:18:57;;;;;;;2.90;1.13;;;;;;;;;;20195480;29;20053;-87
2022/03/27 20:28:59;;;;;;;3.28;1.05;;;;;;;;;;20195550;29;20411;-87
2022/03/27 20:39:00;;;;;;;3.63;1.20;;;;;;;;;;20214808;29;20051;-87
2022/03/27 20:49:02;;;;;;;2.42;1.00;;;;;;;;;;20192408;29;20049;-87
2022/03/27 20:59:05;;;;;;;2.30;0.90;;;;;;;;;;20238907;29;20271;-87
2022/03/27 21:09:08;;;;;;;2.38;1.10;;;;;;;;;;20222046;29;20062;-87
2022/03/27 21:19:09;;;;;;;2.38;1.08;;;;;;;;;;20210216;29;20055;-88
2022/03/27 21:29:11;;;;;;;2.40;1.20;;;;;;;;;;20233334;29;20045;-88
2022/03/27 21:39:13;;;;;;;2.42;1.27;;;;;;;;;;20221032;29;20045;-87
2022/03/27 21:49:15;;;;;;;2.33;1.20;;;;;;;;;;20205904;29;20048;-88
2022/03/27 21:59:17;;;;;;;1.85;1.00;;;;;;;;;;20234716;29;20060;-87
2022/03/27 22:09:19;;;;;;;2.08;1.30;;;;;;;;;;20237147;29;21257;-89
2022/03/27 22:19:20;;;;;;;2.25;1.20;;;;;;;;;;20207049;29;20041;-87
2022/03/27 22:29:22;;;;;;;1.73;1.30;;;;;;;;;;20203736;29;20123;-87
2022/03/27 22:39:24;;;;;;;1.15;0.90;;;;;;;;;;20178855;29;20049;-88
2022/03/27 22:49:25;;;;;;;1.38;0.90;;;;;;;;;;20201734;29;20071;-88
2022/03/27 22:59:27;;;;;;;1.38;1.15;;;;;;;;;;20195302;29;20128;-88
2022/03/27 23:09:29;;;;;;;1.40;1.00;;;;;;;;;;20211356;29;20065;-88
2022/03/27 23:19:31;;;;;;;1.42;0.90;;;;;;;;;;20195373;29;20045;-88
2022/03/27 23:29:33;;;;;;;0.80;0.70;;;;;;;;;;20154556;29;20049;-88
2022/03/27 23:39:34;;;;;;;0.90;0.63;;;;;;;;;;20203218;29;20044;-87
2022/03/27 23:49:36;;;;;;;1.00;0.73;;;;;;;;;;20199616;29;20147;-88
2022/03/27 23:59:38;;;;;;;0.60;0.50;;;;;;;;;;20219469;29;20061;-88
